sensor_id;sensor_type;location;lat;lon;timestamp;P1;durP1;ratioP1;P2;durP2;ratioP2
5539;SDS011;2792;52.452;9.752;2023-03-05T00:00:26;17.97;;;3.37;;
5539;SDS011;2792;52.452;9.752;2023-03-05T00:02:53;6.67;;;2.50;;
5539;SDS011;2792;52.452;9.752;2023-03-05T00:05:19;6.83;;;2.63;;
5539;SDS011;2792;52.452;9.752;2023-03-05T00:07:46;8.73;;;2.80;;
5539;SDS011;2792;52.452;9.752;2023-03-05T00:10:12;5.60;;;2.40;;
5539;SDS011;2792;52.452;9.752;2023-03-05T00:12:40;10.33;;;2.40;;
5539;SDS011;2792;52.452;9.752;2023-03-05T00:15:07;8.50;;;2.50;;
5539;SDS011;2792;52.452;9.752;2023-03-05T00:17:34;8.07;;;2.83;;
5539;SDS011;2792;52.452;9.752;2023-03-05T00:20:01;18.53;;;3.17;;
5539;SDS011;2792;52.452;9.752;2023-03-05T00:22:28;7.37;;;2.23;;
5539;SDS011;2792;52.452;9.752;2023-03-05T00:24:54;7.93;;;2.23;;
5539;SDS011;2792;52.452;9.752;2023-03-05T00:27:21;6.80;;;2.90;;
5539;SDS011;2792;52.452;9.752;2023-03-05T00:29:49;6.53;;;2.30;;
5539;SDS011;2792;52.452;9.752;2023-03-05T00:32:15;6.70;;;2.27;;
5539;SDS011;2792;52.452;9.752;2023-03-05T00:34:42;7.00;;;2.20;;
5539;SDS011;2792;52.452;9.752;2023-03-05T00:37:09;5.73;;;1.93;;
5539;SDS011;2792;52.452;9.752;2023-03-05T00:39:35;6.27;;;2.53;;
5539;SDS011;2792;52.452;9.752;2023-03-05T00:42:02;4.07;;;2.10;;
5539;SDS011;2792;52.452;9.752;2023-03-05T00:44:29;7.90;;;2.13;;
5539;SDS011;2792;52.452;9.752;2023-03-05T00:46:56;13.97;;;2.70;;
5539;SDS011;2792;52.452;9.752;2023-03-05T00:49:23;3.80;;;2.00;;
5539;SDS011;2792;52.452;9.752;2023-03-05T00:51:50;6.03;;;2.30;;
5539;SDS011;2792;52.452;9.752;2023-03-05T00:54:16;8.10;;;2.77;;
5539;SDS011;2792;52.452;9.752;2023-03-05T00:56:43;11.90;;;1.90;;
5539;SDS011;2792;52.452;9.752;2023-03-05T00:59:10;8.13;;;2.20;;
5539;SDS011;2792;52.452;9.752;2023-03-05T01:01:36;6.03;;;2.30;;
5539;SDS011;2792;52.452;9.752;2023-03-05T01:04:04;8.50;;;2.43;;
5539;SDS011;2792;52.452;9.752;2023-03-05T01:06:31;5.40;;;2.33;;
5539;SDS011;2792;52.452;9.752;2023-03-05T01:08:57;13.60;;;2.17;;
5539;SDS011;2792;52.452;9.752;2023-03-05T01:11:24;11.00;;;1.70;;
5539;SDS011;2792;52.452;9.752;2023-03-05T01:13:51;11.30;;;3.00;;
5539;SDS011;2792;52.452;9.752;2023-03-05T01:16:17;3.93;;;1.97;;
5539;SDS011;2792;52.452;9.752;2023-03-05T01:18:44;4.70;;;2.37;;
5539;SDS011;2792;52.452;9.752;2023-03-05T01:21:11;4.93;;;2.13;;
5539;SDS011;2792;52.452;9.752;2023-03-05T01:23:38;9.10;;;2.30;;
5539;SDS011;2792;52.452;9.752;2023-03-05T01:26:04;5.37;;;2.13;;
5539;SDS011;2792;52.452;9.752;2023-03-05T01:28:32;12.37;;;2.87;;
5539;SDS011;2792;52.452;9.752;2023-03-05T01:30:59;9.77;;;2.20;;
5539;SDS011;2792;52.452;9.752;2023-03-05T01:33:25;5.97;;;1.90;;
5539;SDS011;2792;52.452;9.752;2023-03-05T01:35:52;9.10;;;2.50;;
5539;SDS011;2792;52.452;9.752;2023-03-05T01:38:19;9.53;;;2.80;;
5539;SDS011;2792;52.452;9.752;2023-03-05T01:40:46;9.73;;;2.83;;
5539;SDS011;2792;52.452;9.752;2023-03-05T01:43:20;8.87;;;2.60;;
5539;SDS011;2792;52.452;9.752;2023-03-05T01:49:03;10.43;;;2.93;;
5539;SDS011;2792;52.452;9.752;2023-03-05T01:51:34;13.50;;;3.33;;
5539;SDS011;2792;52.452;9.752;2023-03-05T01:54:05;8.03;;;2.50;;
5539;SDS011;2792;52.452;9.752;2023-03-05T01:56:32;6.70;;;2.70;;
5539;SDS011;2792;52.452;9.752;2023-03-05T01:58:59;7.20;;;2.23;;
5539;SDS011;2792;52.452;9.752;2023-03-05T02:01:29;14.60;;;2.63;;
5539;SDS011;2792;52.452;9.752;2023-03-05T02:03:56;15.10;;;2.87;;
5539;SDS011;2792;52.452;9.752;2023-03-05T02:06:23;6.00;;;2.13;;
5539;SDS011;2792;52.452;9.752;2023-03-05T02:08:50;10.33;;;2.60;;
5539;SDS011;2792;52.452;9.752;2023-03-05T02:11:18;4.70;;;1.70;;
5539;SDS011;2792;52.452;9.752;2023-03-05T02:13:45;6.17;;;2.40;;
5539;SDS011;2792;52.452;9.752;2023-03-05T02:16:11;5.40;;;2.60;;
5539;SDS011;2792;52.452;9.752;2023-03-05T02:18:38;8.63;;;2.40;;
5539;SDS011;2792;52.452;9.752;2023-03-05T02:21:06;9.97;;;2.40;;
5539;SDS011;2792;52.452;9.752;2023-03-05T02:23:33;7.30;;;2.20;;
5539;SDS011;2792;52.452;9.752;2023-03-05T02:26:01;6.30;;;1.97;;
5539;SDS011;2792;52.452;9.752;2023-03-05T02:28:29;5.80;;;2.00;;
5539;SDS011;2792;52.452;9.752;2023-03-05T02:30:57;9.10;;;2.20;;
5539;SDS011;2792;52.452;9.752;2023-03-05T02:33:24;4.80;;;2.27;;
5539;SDS011;2792;52.452;9.752;2023-03-05T02:35:51;6.73;;;2.20;;
5539;SDS011;2792;52.452;9.752;2023-03-05T02:38:19;7.13;;;2.47;;
5539;SDS011;2792;52.452;9.752;2023-03-05T02:40:46;4.73;;;2.27;;
5539;SDS011;2792;52.452;9.752;2023-03-05T02:43:13;9.57;;;2.70;;
5539;SDS011;2792;52.452;9.752;2023-03-05T02:45:39;5.20;;;1.97;;
5539;SDS011;2792;52.452;9.752;2023-03-05T02:48:06;12.03;;;2.37;;
5539;SDS011;2792;52.452;9.752;2023-03-05T02:50:32;5.70;;;2.30;;
5539;SDS011;2792;52.452;9.752;2023-03-05T02:52:59;14.40;;;2.47;;
5539;SDS011;2792;52.452;9.752;2023-03-05T02:55:27;5.57;;;2.53;;
5539;SDS011;2792;52.452;9.752;2023-03-05T02:57:54;7.53;;;2.33;;
5539;SDS011;2792;52.452;9.752;2023-03-05T03:00:20;9.93;;;2.67;;
5539;SDS011;2792;52.452;9.752;2023-03-05T03:02:47;10.90;;;3.30;;
5539;SDS011;2792;52.452;9.752;2023-03-05T03:05:14;8.33;;;3.27;;
5539;SDS011;2792;52.452;9.752;2023-03-05T03:07:41;4.97;;;2.70;;
5539;SDS011;2792;52.452;9.752;2023-03-05T03:10:08;7.13;;;2.60;;
5539;SDS011;2792;52.452;9.752;2023-03-05T03:12:37;4.80;;;2.77;;
5539;SDS011;2792;52.452;9.752;2023-03-05T03:15:04;6.63;;;2.80;;
5539;SDS011;2792;52.452;9.752;2023-03-05T03:17:33;7.10;;;3.10;;
5539;SDS011;2792;52.452;9.752;2023-03-05T03:20:00;6.90;;;3.00;;
5539;SDS011;2792;52.452;9.752;2023-03-05T03:22:27;6.90;;;2.53;;
5539;SDS011;2792;52.452;9.752;2023-03-05T03:24:54;8.90;;;2.70;;
5539;SDS011;2792;52.452;9.752;2023-03-05T03:27:21;11.60;;;2.73;;
5539;SDS011;2792;52.452;9.752;2023-03-05T03:29:49;7.87;;;2.97;;
5539;SDS011;2792;52.452;9.752;2023-03-05T03:32:15;9.10;;;3.47;;
5539;SDS011;2792;52.452;9.752;2023-03-05T03:34:42;11.13;;;3.60;;
5539;SDS011;2792;52.452;9.752;2023-03-05T03:37:09;3.53;;;2.33;;
5539;SDS011;2792;52.452;9.752;2023-03-05T03:39:35;6.03;;;2.90;;
5539;SDS011;2792;52.452;9.752;2023-03-05T03:42:02;5.00;;;2.70;;
5539;SDS011;2792;52.452;9.752;2023-03-05T03:44:29;3.00;;;2.70;;
5539;SDS011;2792;52.452;9.752;2023-03-05T03:46:56;5.20;;;2.63;;
5539;SDS011;2792;52.452;9.752;2023-03-05T03:49:24;8.10;;;2.60;;
5539;SDS011;2792;52.452;9.752;2023-03-05T03:51:51;10.33;;;3.40;;
5539;SDS011;2792;52.452;9.752;2023-03-05T03:54:19;12.10;;;3.10;;
5539;SDS011;2792;52.452;9.752;2023-03-05T03:56:46;5.80;;;2.90;;
5539;SDS011;2792;52.452;9.752;2023-03-05T03:59:13;8.90;;;3.57;;
5539;SDS011;2792;52.452;9.752;2023-03-05T04:01:39;9.77;;;2.90;;
5539;SDS011;2792;52.452;9.752;2023-03-05T04:04:08;3.10;;;2.80;;
5539;SDS011;2792;52.452;9.752;2023-03-05T04:06:35;8.47;;;4.10;;
5539;SDS011;2792;52.452;9.752;2023-03-05T04:09:02;7.20;;;3.80;;
5539;SDS011;2792;52.452;9.752;2023-03-05T04:11:28;6.53;;;3.33;;
5539;SDS011;2792;52.452;9.752;2023-03-05T04:13:55;8.50;;;3.30;;
5539;SDS011;2792;52.452;9.752;2023-03-05T04:16:22;7.07;;;3.43;;
5539;SDS011;2792;52.452;9.752;2023-03-05T04:18:48;6.60;;;3.27;;
5539;SDS011;2792;52.452;9.752;2023-03-05T04:21:16;6.70;;;2.80;;
5539;SDS011;2792;52.452;9.752;2023-03-05T04:23:43;10.83;;;3.33;;
5539;SDS011;2792;52.452;9.752;2023-03-05T04:26:09;5.17;;;3.33;;
5539;SDS011;2792;52.452;9.752;2023-03-05T04:28:36;5.03;;;2.73;;
5539;SDS011;2792;52.452;9.752;2023-03-05T04:31:03;3.50;;;3.03;;
5539;SDS011;2792;52.452;9.752;2023-03-05T04:33:30;6.63;;;3.00;;
5539;SDS011;2792;52.452;9.752;2023-03-05T04:35:56;4.60;;;2.67;;
5539;SDS011;2792;52.452;9.752;2023-03-05T04:38:24;7.13;;;3.27;;
5539;SDS011;2792;52.452;9.752;2023-03-05T04:40:51;5.83;;;3.20;;
5539;SDS011;2792;52.452;9.752;2023-03-05T04:43:17;8.90;;;4.40;;
5539;SDS011;2792;52.452;9.752;2023-03-05T04:45:44;7.97;;;3.13;;
5539;SDS011;2792;52.452;9.752;2023-03-05T04:48:10;4.33;;;2.60;;
5539;SDS011;2792;52.452;9.752;2023-03-05T04:50:37;6.60;;;3.37;;
5539;SDS011;2792;52.452;9.752;2023-03-05T04:53:04;6.60;;;3.00;;
5539;SDS011;2792;52.452;9.752;2023-03-05T04:55:32;6.50;;;2.37;;
5539;SDS011;2792;52.452;9.752;2023-03-05T04:57:59;4.87;;;2.77;;
5539;SDS011;2792;52.452;9.752;2023-03-05T05:00:25;5.60;;;2.90;;
5539;SDS011;2792;52.452;9.752;2023-03-05T05:02:52;3.73;;;2.27;;
5539;SDS011;2792;52.452;9.752;2023-03-05T05:05:19;4.63;;;3.03;;
5539;SDS011;2792;52.452;9.752;2023-03-05T05:07:47;8.90;;;3.13;;
5539;SDS011;2792;52.452;9.752;2023-03-05T05:10:13;6.50;;;3.03;;
5539;SDS011;2792;52.452;9.752;2023-03-05T05:12:42;14.20;;;2.93;;
5539;SDS011;2792;52.452;9.752;2023-03-05T05:15:09;8.70;;;3.43;;
5539;SDS011;2792;52.452;9.752;2023-03-05T05:17:37;4.00;;;3.30;;
5539;SDS011;2792;52.452;9.752;2023-03-05T05:20:04;3.93;;;2.63;;
5539;SDS011;2792;52.452;9.752;2023-03-05T05:22:32;11.93;;;3.80;;
5539;SDS011;2792;52.452;9.752;2023-03-05T05:24:59;5.50;;;2.83;;
5539;SDS011;2792;52.452;9.752;2023-03-05T05:27:26;9.13;;;3.60;;
5539;SDS011;2792;52.452;9.752;2023-03-05T05:29:54;5.37;;;3.40;;
5539;SDS011;2792;52.452;9.752;2023-03-05T05:32:21;5.07;;;3.40;;
5539;SDS011;2792;52.452;9.752;2023-03-05T05:34:52;7.23;;;3.70;;
5539;SDS011;2792;52.452;9.752;2023-03-05T05:37:19;8.27;;;4.67;;
5539;SDS011;2792;52.452;9.752;2023-03-05T05:39:46;6.20;;;2.90;;
5539;SDS011;2792;52.452;9.752;2023-03-05T05:42:17;7.40;;;2.80;;
5539;SDS011;2792;52.452;9.752;2023-03-05T05:44:43;6.07;;;3.10;;
5539;SDS011;2792;52.452;9.752;2023-03-05T05:47:12;3.50;;;3.10;;
5539;SDS011;2792;52.452;9.752;2023-03-05T05:49:39;11.53;;;3.80;;
5539;SDS011;2792;52.452;9.752;2023-03-05T05:52:06;5.90;;;3.20;;
5539;SDS011;2792;52.452;9.752;2023-03-05T05:54:32;6.63;;;3.47;;
5539;SDS011;2792;52.452;9.752;2023-03-05T05:56:59;7.70;;;3.40;;
5539;SDS011;2792;52.452;9.752;2023-03-05T05:59:25;7.57;;;3.17;;
5539;SDS011;2792;52.452;9.752;2023-03-05T06:01:52;6.43;;;2.83;;
5539;SDS011;2792;52.452;9.752;2023-03-05T06:04:20;5.90;;;3.07;;
5539;SDS011;2792;52.452;9.752;2023-03-05T06:06:46;9.27;;;3.57;;
5539;SDS011;2792;52.452;9.752;2023-03-05T06:09:13;8.00;;;3.37;;
5539;SDS011;2792;52.452;9.752;2023-03-05T06:11:39;6.33;;;2.80;;
5539;SDS011;2792;52.452;9.752;2023-03-05T06:14:06;6.43;;;3.77;;
5539;SDS011;2792;52.452;9.752;2023-03-05T06:16:33;6.33;;;2.63;;
5539;SDS011;2792;52.452;9.752;2023-03-05T06:18:59;4.90;;;2.40;;
5539;SDS011;2792;52.452;9.752;2023-03-05T06:21:29;5.87;;;2.90;;
5539;SDS011;2792;52.452;9.752;2023-03-05T06:23:58;7.37;;;3.13;;
5539;SDS011;2792;52.452;9.752;2023-03-05T06:26:24;4.03;;;2.50;;
5539;SDS011;2792;52.452;9.752;2023-03-05T06:28:51;5.23;;;3.10;;
5539;SDS011;2792;52.452;9.752;2023-03-05T06:31:19;8.73;;;2.80;;
5539;SDS011;2792;52.452;9.752;2023-03-05T06:33:47;5.90;;;3.10;;
5539;SDS011;2792;52.452;9.752;2023-03-05T06:36:14;3.17;;;2.87;;
5539;SDS011;2792;52.452;9.752;2023-03-05T06:38:43;3.87;;;2.60;;
5539;SDS011;2792;52.452;9.752;2023-03-05T06:41:11;3.47;;;2.70;;
5539;SDS011;2792;52.452;9.752;2023-03-05T06:43:39;6.40;;;3.20;;
5539;SDS011;2792;52.452;9.752;2023-03-05T06:46:07;5.30;;;3.23;;
5539;SDS011;2792;52.452;9.752;2023-03-05T06:48:36;4.83;;;2.83;;
5539;SDS011;2792;52.452;9.752;2023-03-05T06:51:03;5.30;;;2.53;;
5539;SDS011;2792;52.452;9.752;2023-03-05T06:53:30;5.40;;;2.20;;
5539;SDS011;2792;52.452;9.752;2023-03-05T06:55:59;9.53;;;3.10;;
5539;SDS011;2792;52.452;9.752;2023-03-05T06:58:26;6.70;;;2.90;;
5539;SDS011;2792;52.452;9.752;2023-03-05T07:00:52;5.27;;;2.80;;
5539;SDS011;2792;52.452;9.752;2023-03-05T07:03:19;6.93;;;2.70;;
5539;SDS011;2792;52.452;9.752;2023-03-05T07:05:45;5.10;;;3.03;;
5539;SDS011;2792;52.452;9.752;2023-03-05T07:08:12;5.37;;;2.50;;
5539;SDS011;2792;52.452;9.752;2023-03-05T07:10:39;8.37;;;3.00;;
5539;SDS011;2792;52.452;9.752;2023-03-05T07:13:08;8.60;;;3.20;;
5539;SDS011;2792;52.452;9.752;2023-03-05T07:15:36;6.80;;;3.17;;
5539;SDS011;2792;52.452;9.752;2023-03-05T07:18:03;9.40;;;2.97;;
5539;SDS011;2792;52.452;9.752;2023-03-05T07:20:30;3.87;;;2.53;;
5539;SDS011;2792;52.452;9.752;2023-03-05T07:22:56;3.50;;;2.50;;
5539;SDS011;2792;52.452;9.752;2023-03-05T07:25:23;8.00;;;2.80;;
5539;SDS011;2792;52.452;9.752;2023-03-05T07:27:49;5.63;;;2.60;;
5539;SDS011;2792;52.452;9.752;2023-03-05T07:30:17;11.10;;;3.10;;
5539;SDS011;2792;52.452;9.752;2023-03-05T07:32:44;4.23;;;2.27;;
5539;SDS011;2792;52.452;9.752;2023-03-05T07:35:12;7.50;;;2.60;;
5539;SDS011;2792;52.452;9.752;2023-03-05T07:37:39;7.73;;;2.30;;
5539;SDS011;2792;52.452;9.752;2023-03-05T07:40:06;4.53;;;2.27;;
5539;SDS011;2792;52.452;9.752;2023-03-05T07:42:34;3.33;;;2.07;;
5539;SDS011;2792;52.452;9.752;2023-03-05T07:45:00;3.20;;;2.13;;
5539;SDS011;2792;52.452;9.752;2023-03-05T07:47:28;2.53;;;2.20;;
5539;SDS011;2792;52.452;9.752;2023-03-05T07:49:55;5.53;;;2.67;;
5539;SDS011;2792;52.452;9.752;2023-03-05T07:52:21;5.50;;;2.40;;
5539;SDS011;2792;52.452;9.752;2023-03-05T07:54:48;3.50;;;1.97;;
5539;SDS011;2792;52.452;9.752;2023-03-05T07:57:14;5.00;;;2.17;;
5539;SDS011;2792;52.452;9.752;2023-03-05T07:59:41;2.73;;;1.80;;
5539;SDS011;2792;52.452;9.752;2023-03-05T08:02:08;5.13;;;2.40;;
5539;SDS011;2792;52.452;9.752;2023-03-05T08:04:37;3.43;;;1.83;;
5539;SDS011;2792;52.452;9.752;2023-03-05T08:07:03;8.43;;;2.40;;
5539;SDS011;2792;52.452;9.752;2023-03-05T08:09:30;2.20;;;1.83;;
5539;SDS011;2792;52.452;9.752;2023-03-05T08:11:57;3.57;;;1.80;;
5539;SDS011;2792;52.452;9.752;2023-03-05T08:14:23;3.80;;;2.17;;
5539;SDS011;2792;52.452;9.752;2023-03-05T08:16:50;3.07;;;1.93;;
5539;SDS011;2792;52.452;9.752;2023-03-05T08:19:17;3.30;;;2.10;;
5539;SDS011;2792;52.452;9.752;2023-03-05T08:21:45;3.80;;;1.97;;
5539;SDS011;2792;52.452;9.752;2023-03-05T08:24:12;2.13;;;1.93;;
5539;SDS011;2792;52.452;9.752;2023-03-05T08:26:39;2.93;;;1.90;;
5539;SDS011;2792;52.452;9.752;2023-03-05T08:29:07;2.80;;;2.20;;
5539;SDS011;2792;52.452;9.752;2023-03-05T08:31:34;2.97;;;2.07;;
5539;SDS011;2792;52.452;9.752;2023-03-05T08:34:01;8.13;;;2.10;;
5539;SDS011;2792;52.452;9.752;2023-03-05T08:36:29;3.30;;;1.80;;
5539;SDS011;2792;52.452;9.752;2023-03-05T08:38:57;4.27;;;2.30;;
5539;SDS011;2792;52.452;9.752;2023-03-05T08:41:24;7.90;;;2.77;;
5539;SDS011;2792;52.452;9.752;2023-03-05T08:43:50;3.10;;;2.00;;
5539;SDS011;2792;52.452;9.752;2023-03-05T08:46:17;3.40;;;2.40;;
5539;SDS011;2792;52.452;9.752;2023-03-05T08:48:44;4.40;;;1.97;;
5539;SDS011;2792;52.452;9.752;2023-03-05T08:51:11;5.07;;;1.97;;
5539;SDS011;2792;52.452;9.752;2023-03-05T08:53:39;1.57;;;1.37;;
5539;SDS011;2792;52.452;9.752;2023-03-05T08:56:07;3.20;;;1.90;;
5539;SDS011;2792;52.452;9.752;2023-03-05T08:58:34;6.07;;;2.30;;
5539;SDS011;2792;52.452;9.752;2023-03-05T09:01:01;1.77;;;1.63;;
5539;SDS011;2792;52.452;9.752;2023-03-05T09:03:27;3.97;;;2.00;;
5539;SDS011;2792;52.452;9.752;2023-03-05T09:05:57;3.50;;;2.00;;
5539;SDS011;2792;52.452;9.752;2023-03-05T09:08:24;2.13;;;1.73;;
5539;SDS011;2792;52.452;9.752;2023-03-05T09:10:51;4.20;;;1.90;;
5539;SDS011;2792;52.452;9.752;2023-03-05T09:13:19;4.00;;;2.13;;
5539;SDS011;2792;52.452;9.752;2023-03-05T09:15:52;4.00;;;2.10;;
5539;SDS011;2792;52.452;9.752;2023-03-05T09:18:19;2.93;;;2.10;;
5539;SDS011;2792;52.452;9.752;2023-03-05T09:20:45;2.80;;;2.00;;
5539;SDS011;2792;52.452;9.752;2023-03-05T09:23:12;3.60;;;1.97;;
5539;SDS011;2792;52.452;9.752;2023-03-05T09:25:38;7.20;;;2.70;;
5539;SDS011;2792;52.452;9.752;2023-03-05T09:28:05;3.53;;;2.00;;
5539;SDS011;2792;52.452;9.752;2023-03-05T09:30:33;4.03;;;2.00;;
5539;SDS011;2792;52.452;9.752;2023-03-05T09:33:00;2.40;;;2.10;;
5539;SDS011;2792;52.452;9.752;2023-03-05T09:35:27;4.13;;;2.07;;
5539;SDS011;2792;52.452;9.752;2023-03-05T09:37:53;5.23;;;2.00;;
5539;SDS011;2792;52.452;9.752;2023-03-05T09:40:20;3.33;;;1.93;;
5539;SDS011;2792;52.452;9.752;2023-03-05T09:42:53;3.57;;;1.97;;
5539;SDS011;2792;52.452;9.752;2023-03-05T09:45:27;5.23;;;2.00;;
5539;SDS011;2792;52.452;9.752;2023-03-05T09:47:59;1.87;;;1.77;;
5539;SDS011;2792;52.452;9.752;2023-03-05T09:50:33;5.27;;;1.90;;
5539;SDS011;2792;52.452;9.752;2023-03-05T09:53:03;1.50;;;1.30;;
5539;SDS011;2792;52.452;9.752;2023-03-05T09:55:34;3.63;;;1.37;;
5539;SDS011;2792;52.452;9.752;2023-03-05T09:58:05;5.00;;;1.67;;
5539;SDS011;2792;52.452;9.752;2023-03-05T10:00:36;3.30;;;1.50;;
5539;SDS011;2792;52.452;9.752;2023-03-05T10:03:11;3.27;;;1.30;;
5539;SDS011;2792;52.452;9.752;2023-03-05T10:05:45;1.53;;;1.30;;
5539;SDS011;2792;52.452;9.752;2023-03-05T10:08:16;3.93;;;1.43;;
5539;SDS011;2792;52.452;9.752;2023-03-05T10:10:47;5.60;;;1.53;;
5539;SDS011;2792;52.452;9.752;2023-03-05T10:13:15;1.03;;;1.03;;
5539;SDS011;2792;52.452;9.752;2023-03-05T10:15:47;1.53;;;1.27;;
5539;SDS011;2792;52.452;9.752;2023-03-05T10:18:23;3.07;;;1.23;;
5539;SDS011;2792;52.452;9.752;2023-03-05T10:20:57;2.60;;;1.57;;
5539;SDS011;2792;52.452;9.752;2023-03-05T10:23:27;5.10;;;1.70;;
5539;SDS011;2792;52.452;9.752;2023-03-05T10:26:01;1.40;;;1.30;;
5539;SDS011;2792;52.452;9.752;2023-03-05T10:28:34;1.37;;;1.20;;
5539;SDS011;2792;52.452;9.752;2023-03-05T10:31:09;2.50;;;1.50;;
5539;SDS011;2792;52.452;9.752;2023-03-05T10:33:47;2.40;;;1.37;;
5539;SDS011;2792;52.452;9.752;2023-03-05T10:36:37;3.37;;;1.50;;
5539;SDS011;2792;52.452;9.752;2023-03-05T10:39:18;4.70;;;1.63;;
5539;SDS011;2792;52.452;9.752;2023-03-05T10:42:00;1.30;;;1.20;;
5539;SDS011;2792;52.452;9.752;2023-03-05T10:44:32;1.90;;;1.40;;
5539;SDS011;2792;52.452;9.752;2023-03-05T10:47:01;2.43;;;1.73;;
5539;SDS011;2792;52.452;9.752;2023-03-05T10:49:31;6.33;;;1.97;;
5539;SDS011;2792;52.452;9.752;2023-03-05T10:52:02;3.40;;;1.20;;
5539;SDS011;2792;52.452;9.752;2023-03-05T10:54:33;3.50;;;1.53;;
5539;SDS011;2792;52.452;9.752;2023-03-05T10:57:15;5.47;;;1.63;;
5539;SDS011;2792;52.452;9.752;2023-03-05T10:59:45;2.20;;;1.00;;
5539;SDS011;2792;52.452;9.752;2023-03-05T11:02:14;3.40;;;1.08;;
5539;SDS011;2792;52.452;9.752;2023-03-05T11:04:42;1.03;;;0.80;;
5539;SDS011;2792;52.452;9.752;2023-03-05T11:10:12;1.03;;;0.80;;
5539;SDS011;2792;52.452;9.752;2023-03-05T11:12:41;2.43;;;0.87;;
5539;SDS011;2792;52.452;9.752;2023-03-05T11:15:19;1.23;;;1.10;;
5539;SDS011;2792;52.452;9.752;2023-03-05T11:18:02;2.07;;;1.10;;
5539;SDS011;2792;52.452;9.752;2023-03-05T11:20:33;4.30;;;0.90;;
5539;SDS011;2792;52.452;9.752;2023-03-05T11:23:02;1.90;;;1.20;;
5539;SDS011;2792;52.452;9.752;2023-03-05T11:25:35;1.20;;;1.00;;
5539;SDS011;2792;52.452;9.752;2023-03-05T11:28:23;2.20;;;1.10;;
5539;SDS011;2792;52.452;9.752;2023-03-05T11:30:59;2.80;;;1.17;;
5539;SDS011;2792;52.452;9.752;2023-03-05T11:33:27;3.37;;;1.50;;
5539;SDS011;2792;52.452;9.752;2023-03-05T11:36:10;1.03;;;1.00;;
5539;SDS011;2792;52.452;9.752;2023-03-05T11:38:46;5.90;;;1.60;;
5539;SDS011;2792;52.452;9.752;2023-03-05T11:41:17;3.27;;;1.30;;
5539;SDS011;2792;52.452;9.752;2023-03-05T11:43:46;1.83;;;1.23;;
5539;SDS011;2792;52.452;9.752;2023-03-05T11:46:13;7.53;;;1.40;;
5539;SDS011;2792;52.452;9.752;2023-03-05T11:48:40;4.90;;;1.07;;
5539;SDS011;2792;52.452;9.752;2023-03-05T11:51:14;3.60;;;1.40;;
5539;SDS011;2792;52.452;9.752;2023-03-05T11:53:43;1.37;;;1.10;;
5539;SDS011;2792;52.452;9.752;2023-03-05T11:56:12;3.00;;;1.17;;
5539;SDS011;2792;52.452;9.752;2023-03-05T11:58:43;1.53;;;1.10;;
5539;SDS011;2792;52.452;9.752;2023-03-05T12:01:13;2.50;;;1.10;;
5539;SDS011;2792;52.452;9.752;2023-03-05T12:03:41;3.63;;;1.60;;
5539;SDS011;2792;52.452;9.752;2023-03-05T12:06:09;3.40;;;1.30;;
5539;SDS011;2792;52.452;9.752;2023-03-05T12:08:43;3.90;;;1.80;;
5539;SDS011;2792;52.452;9.752;2023-03-05T12:11:13;2.53;;;1.50;;
5539;SDS011;2792;52.452;9.752;2023-03-05T12:13:41;5.87;;;1.63;;
5539;SDS011;2792;52.452;9.752;2023-03-05T12:16:11;2.70;;;1.00;;
5539;SDS011;2792;52.452;9.752;2023-03-05T12:18:50;1.87;;;1.30;;
5539;SDS011;2792;52.452;9.752;2023-03-05T12:21:24;3.53;;;1.40;;
5539;SDS011;2792;52.452;9.752;2023-03-05T12:23:57;3.43;;;1.13;;
5539;SDS011;2792;52.452;9.752;2023-03-05T12:29:28;2.43;;;1.30;;
5539;SDS011;2792;52.452;9.752;2023-03-05T12:31:57;4.27;;;1.50;;
5539;SDS011;2792;52.452;9.752;2023-03-05T12:34:44;7.23;;;1.67;;
5539;SDS011;2792;52.452;9.752;2023-03-05T12:37:15;1.40;;;1.10;;
5539;SDS011;2792;52.452;9.752;2023-03-05T12:40:20;5.67;;;1.40;;
5539;SDS011;2792;52.452;9.752;2023-03-05T12:42:51;2.23;;;1.60;;
5539;SDS011;2792;52.452;9.752;2023-03-05T12:45:30;1.50;;;1.07;;
5539;SDS011;2792;52.452;9.752;2023-03-05T12:51:05;4.10;;;1.10;;
5539;SDS011;2792;52.452;9.752;2023-03-05T12:53:32;3.10;;;1.30;;
5539;SDS011;2792;52.452;9.752;2023-03-05T12:56:00;2.20;;;0.90;;
5539;SDS011;2792;52.452;9.752;2023-03-05T12:58:33;2.50;;;1.17;;
5539;SDS011;2792;52.452;9.752;2023-03-05T13:01:03;1.63;;;1.23;;
5539;SDS011;2792;52.452;9.752;2023-03-05T13:03:34;1.50;;;1.40;;
5539;SDS011;2792;52.452;9.752;2023-03-05T13:06:04;1.30;;;1.20;;
5539;SDS011;2792;52.452;9.752;2023-03-05T13:08:33;3.40;;;1.67;;
5539;SDS011;2792;52.452;9.752;2023-03-05T13:11:02;3.80;;;1.50;;
5539;SDS011;2792;52.452;9.752;2023-03-05T13:13:31;2.40;;;1.43;;
5539;SDS011;2792;52.452;9.752;2023-03-05T13:16:01;3.93;;;1.77;;
5539;SDS011;2792;52.452;9.752;2023-03-05T13:18:28;1.40;;;1.20;;
5539;SDS011;2792;52.452;9.752;2023-03-05T13:21:00;5.53;;;2.00;;
5539;SDS011;2792;52.452;9.752;2023-03-05T13:23:28;2.63;;;1.83;;
5539;SDS011;2792;52.452;9.752;2023-03-05T13:25:57;7.03;;;1.50;;
5539;SDS011;2792;52.452;9.752;2023-03-05T13:28:25;12.37;;;1.93;;
5539;SDS011;2792;52.452;9.752;2023-03-05T13:30:52;1.17;;;1.17;;
5539;SDS011;2792;52.452;9.752;2023-03-05T13:33:21;3.13;;;1.50;;
5539;SDS011;2792;52.452;9.752;2023-03-05T13:35:53;3.20;;;1.23;;
5539;SDS011;2792;52.452;9.752;2023-03-05T13:38:21;4.93;;;1.23;;
5539;SDS011;2792;52.452;9.752;2023-03-05T13:41:07;1.70;;;1.10;;
5539;SDS011;2792;52.452;9.752;2023-03-05T13:43:45;2.07;;;1.20;;
5539;SDS011;2792;52.452;9.752;2023-03-05T13:46:13;1.40;;;1.10;;
5539;SDS011;2792;52.452;9.752;2023-03-05T13:48:48;2.43;;;1.30;;
5539;SDS011;2792;52.452;9.752;2023-03-05T13:51:14;1.40;;;1.10;;
5539;SDS011;2792;52.452;9.752;2023-03-05T13:53:41;2.23;;;1.10;;
5539;SDS011;2792;52.452;9.752;2023-03-05T13:56:12;1.40;;;1.23;;
5539;SDS011;2792;52.452;9.752;2023-03-05T13:58:45;3.47;;;1.07;;
5539;SDS011;2792;52.452;9.752;2023-03-05T14:01:14;5.17;;;1.47;;
5539;SDS011;2792;52.452;9.752;2023-03-05T14:03:44;1.27;;;1.00;;
5539;SDS011;2792;52.452;9.752;2023-03-05T14:06:14;4.87;;;1.30;;
5539;SDS011;2792;52.452;9.752;2023-03-05T14:08:47;5.43;;;1.50;;
5539;SDS011;2792;52.452;9.752;2023-03-05T14:11:16;2.87;;;1.03;;
5539;SDS011;2792;52.452;9.752;2023-03-05T14:13:43;1.20;;;0.80;;
5539;SDS011;2792;52.452;9.752;2023-03-05T14:16:12;2.90;;;1.20;;
5539;SDS011;2792;52.452;9.752;2023-03-05T14:18:50;2.63;;;1.50;;
5539;SDS011;2792;52.452;9.752;2023-03-05T14:21:18;2.93;;;1.03;;
5539;SDS011;2792;52.452;9.752;2023-03-05T14:23:45;1.10;;;0.80;;
5539;SDS011;2792;52.452;9.752;2023-03-05T14:26:18;5.27;;;1.20;;
5539;SDS011;2792;52.452;9.752;2023-03-05T14:28:50;5.73;;;1.67;;
5539;SDS011;2792;52.452;9.752;2023-03-05T14:31:18;1.80;;;1.10;;
5539;SDS011;2792;52.452;9.752;2023-03-05T14:33:45;2.83;;;1.63;;
5539;SDS011;2792;52.452;9.752;2023-03-05T14:36:12;1.73;;;1.17;;
5539;SDS011;2792;52.452;9.752;2023-03-05T14:38:40;1.37;;;1.10;;
5539;SDS011;2792;52.452;9.752;2023-03-05T14:41:26;2.53;;;1.50;;
5539;SDS011;2792;52.452;9.752;2023-03-05T14:43:58;1.40;;;1.30;;
5539;SDS011;2792;52.452;9.752;2023-03-05T14:46:25;4.00;;;1.33;;
5539;SDS011;2792;52.452;9.752;2023-03-05T14:48:51;3.33;;;1.70;;
5539;SDS011;2792;52.452;9.752;2023-03-05T14:51:18;5.10;;;1.27;;
5539;SDS011;2792;52.452;9.752;2023-03-05T14:53:45;2.10;;;1.20;;
5539;SDS011;2792;52.452;9.752;2023-03-05T14:56:16;2.77;;;1.57;;
5539;SDS011;2792;52.452;9.752;2023-03-05T14:58:45;3.70;;;1.57;;
5539;SDS011;2792;52.452;9.752;2023-03-05T15:01:11;3.10;;;1.43;;
5539;SDS011;2792;52.452;9.752;2023-03-05T15:03:38;3.00;;;1.23;;
5539;SDS011;2792;52.452;9.752;2023-03-05T15:06:06;2.33;;;1.63;;
5539;SDS011;2792;52.452;9.752;2023-03-05T15:08:33;3.23;;;1.37;;
5539;SDS011;2792;52.452;9.752;2023-03-05T15:11:00;1.40;;;1.23;;
5539;SDS011;2792;52.452;9.752;2023-03-05T15:13:27;1.67;;;1.30;;
5539;SDS011;2792;52.452;9.752;2023-03-05T15:15:55;5.90;;;1.20;;
5539;SDS011;2792;52.452;9.752;2023-03-05T15:18:22;1.40;;;1.30;;
5539;SDS011;2792;52.452;9.752;2023-03-05T15:20:49;2.10;;;1.30;;
5539;SDS011;2792;52.452;9.752;2023-03-05T15:23:17;1.10;;;1.00;;
5539;SDS011;2792;52.452;9.752;2023-03-05T15:25:43;2.87;;;1.57;;
5539;SDS011;2792;52.452;9.752;2023-03-05T15:28:10;3.17;;;1.53;;
5539;SDS011;2792;52.452;9.752;2023-03-05T15:30:37;2.60;;;1.67;;
5539;SDS011;2792;52.452;9.752;2023-03-05T15:33:10;5.13;;;2.53;;
5539;SDS011;2792;52.452;9.752;2023-03-05T15:35:38;1.97;;;1.73;;